sensor_id;sensor_type;location;lat;lon;timestamp;P1;durP1;ratioP1;P2;durP2;ratioP2
18596;SDS011;9428;50.950;6.912;2024-01-27T00:02:37;12.57;;;2.80;;
18596;SDS011;9428;50.950;6.912;2024-01-27T00:05:28;13.50;;;3.27;;
18596;SDS011;9428;50.950;6.912;2024-01-27T00:08:15;10.90;;;2.63;;
18596;SDS011;9428;50.950;6.912;2024-01-27T00:11:03;17.30;;;3.03;;
18596;SDS011;9428;50.950;6.912;2024-01-27T00:13:53;14.67;;;3.47;;
18596;SDS011;9428;50.950;6.912;2024-01-27T00:16:41;11.87;;;2.60;;
18596;SDS011;9428;50.950;6.912;2024-01-27T00:19:34;9.00;;;2.67;;
18596;SDS011;9428;50.950;6.912;2024-01-27T00:22:24;13.97;;;2.80;;
18596;SDS011;9428;50.950;6.912;2024-01-27T00:25:15;14.47;;;2.53;;
18596;SDS011;9428;50.950;6.912;2024-01-27T00:28:05;8.77;;;2.70;;
18596;SDS011;9428;50.950;6.912;2024-01-27T00:30:52;12.47;;;2.37;;
18596;SDS011;9428;50.950;6.912;2024-01-27T00:33:45;19.50;;;3.37;;
18596;SDS011;9428;50.950;6.912;2024-01-27T00:36:39;9.37;;;2.73;;
18596;SDS011;9428;50.950;6.912;2024-01-27T00:39:28;21.50;;;2.63;;
18596;SDS011;9428;50.950;6.912;2024-01-27T00:42:17;14.97;;;2.47;;
18596;SDS011;9428;50.950;6.912;2024-01-27T00:45:09;17.70;;;4.77;;
18596;SDS011;9428;50.950;6.912;2024-01-27T00:47:57;13.60;;;3.10;;
18596;SDS011;9428;50.950;6.912;2024-01-27T00:50:49;13.73;;;2.53;;
18596;SDS011;9428;50.950;6.912;2024-01-27T00:53:39;14.13;;;3.00;;
18596;SDS011;9428;50.950;6.912;2024-01-27T00:56:27;12.90;;;2.70;;
18596;SDS011;9428;50.950;6.912;2024-01-27T00:59:17;16.03;;;2.90;;
18596;SDS011;9428;50.950;6.912;2024-01-27T01:02:05;9.60;;;2.83;;
18596;SDS011;9428;50.950;6.912;2024-01-27T01:04:53;13.57;;;3.50;;
18596;SDS011;9428;50.950;6.912;2024-01-27T01:07:40;16.37;;;3.77;;
18596;SDS011;9428;50.950;6.912;2024-01-27T01:10:31;14.30;;;3.77;;
18596;SDS011;9428;50.950;6.912;2024-01-27T01:13:18;17.63;;;3.53;;
18596;SDS011;9428;50.950;6.912;2024-01-27T01:16:06;14.13;;;3.10;;
18596;SDS011;9428;50.950;6.912;2024-01-27T01:18:54;17.50;;;3.83;;
18596;SDS011;9428;50.950;6.912;2024-01-27T01:21:42;16.67;;;3.63;;
18596;SDS011;9428;50.950;6.912;2024-01-27T01:24:29;14.17;;;3.23;;
18596;SDS011;9428;50.950;6.912;2024-01-27T01:27:18;15.40;;;3.13;;
18596;SDS011;9428;50.950;6.912;2024-01-27T01:30:06;16.50;;;3.47;;
18596;SDS011;9428;50.950;6.912;2024-01-27T01:32:54;12.00;;;3.00;;
18596;SDS011;9428;50.950;6.912;2024-01-27T01:35:42;14.17;;;3.57;;
18596;SDS011;9428;50.950;6.912;2024-01-27T01:38:29;11.00;;;3.33;;
18596;SDS011;9428;50.950;6.912;2024-01-27T01:41:17;18.77;;;4.40;;
18596;SDS011;9428;50.950;6.912;2024-01-27T01:44:05;16.60;;;4.33;;
18596;SDS011;9428;50.950;6.912;2024-01-27T01:46:53;9.00;;;4.10;;
18596;SDS011;9428;50.950;6.912;2024-01-27T01:49:41;14.20;;;4.37;;
18596;SDS011;9428;50.950;6.912;2024-01-27T01:52:28;13.13;;;3.87;;
18596;SDS011;9428;50.950;6.912;2024-01-27T01:55:16;18.70;;;4.17;;
18596;SDS011;9428;50.950;6.912;2024-01-27T01:58:03;11.23;;;3.83;;
18596;SDS011;9428;50.950;6.912;2024-01-27T02:00:53;16.10;;;4.03;;
18596;SDS011;9428;50.950;6.912;2024-01-27T02:03:40;14.87;;;4.27;;
18596;SDS011;9428;50.950;6.912;2024-01-27T02:06:39;18.60;;;4.43;;
18596;SDS011;9428;50.950;6.912;2024-01-27T02:09:26;15.73;;;4.43;;
18596;SDS011;9428;50.950;6.912;2024-01-27T02:12:15;15.23;;;3.70;;
18596;SDS011;9428;50.950;6.912;2024-01-27T02:15:03;25.40;;;3.73;;
18596;SDS011;9428;50.950;6.912;2024-01-27T02:17:52;12.50;;;4.20;;
18596;SDS011;9428;50.950;6.912;2024-01-27T02:20:39;17.90;;;3.80;;
18596;SDS011;9428;50.950;6.912;2024-01-27T02:23:27;17.57;;;4.50;;
18596;SDS011;9428;50.950;6.912;2024-01-27T02:26:16;18.87;;;4.27;;
18596;SDS011;9428;50.950;6.912;2024-01-27T02:29:03;20.17;;;4.33;;
18596;SDS011;9428;50.950;6.912;2024-01-27T02:31:50;12.47;;;3.60;;
18596;SDS011;9428;50.950;6.912;2024-01-27T02:34:38;16.90;;;3.77;;
18596;SDS011;9428;50.950;6.912;2024-01-27T02:37:25;16.50;;;3.97;;
18596;SDS011;9428;50.950;6.912;2024-01-27T02:40:13;11.10;;;3.03;;
18596;SDS011;9428;50.950;6.912;2024-01-27T02:43:02;7.73;;;3.50;;
18596;SDS011;9428;50.950;6.912;2024-01-27T02:45:50;13.37;;;3.80;;
18596;SDS011;9428;50.950;6.912;2024-01-27T02:48:39;13.90;;;3.70;;
18596;SDS011;9428;50.950;6.912;2024-01-27T02:51:27;14.30;;;3.43;;
18596;SDS011;9428;50.950;6.912;2024-01-27T02:54:14;16.50;;;4.30;;
18596;SDS011;9428;50.950;6.912;2024-01-27T02:57:02;18.03;;;3.73;;
18596;SDS011;9428;50.950;6.912;2024-01-27T02:59:51;21.33;;;3.50;;
18596;SDS011;9428;50.950;6.912;2024-01-27T03:02:38;13.60;;;3.53;;
18596;SDS011;9428;50.950;6.912;2024-01-27T03:05:26;15.23;;;3.07;;
18596;SDS011;9428;50.950;6.912;2024-01-27T03:08:13;12.40;;;3.13;;
18596;SDS011;9428;50.950;6.912;2024-01-27T03:11:00;15.70;;;3.40;;
18596;SDS011;9428;50.950;6.912;2024-01-27T03:13:48;14.23;;;3.50;;
18596;SDS011;9428;50.950;6.912;2024-01-27T03:16:37;14.87;;;3.60;;
18596;SDS011;9428;50.950;6.912;2024-01-27T03:19:24;19.33;;;4.63;;
18596;SDS011;9428;50.950;6.912;2024-01-27T03:22:12;20.87;;;5.63;;
18596;SDS011;9428;50.950;6.912;2024-01-27T03:24:59;16.67;;;5.77;;
18596;SDS011;9428;50.950;6.912;2024-01-27T03:27:47;14.70;;;3.83;;
18596;SDS011;9428;50.950;6.912;2024-01-27T03:30:34;13.03;;;3.83;;
18596;SDS011;9428;50.950;6.912;2024-01-27T03:33:23;8.67;;;3.40;;
18596;SDS011;9428;50.950;6.912;2024-01-27T03:36:11;13.77;;;3.73;;
18596;SDS011;9428;50.950;6.912;2024-01-27T03:38:59;12.63;;;3.67;;
18596;SDS011;9428;50.950;6.912;2024-01-27T03:41:46;23.60;;;5.77;;
18596;SDS011;9428;50.950;6.912;2024-01-27T03:44:34;20.57;;;4.53;;
18596;SDS011;9428;50.950;6.912;2024-01-27T03:47:21;23.17;;;4.93;;
18596;SDS011;9428;50.950;6.912;2024-01-27T03:50:13;21.43;;;4.43;;
18596;SDS011;9428;50.950;6.912;2024-01-27T03:53:00;12.87;;;4.17;;
18596;SDS011;9428;50.950;6.912;2024-01-27T03:55:49;15.33;;;3.87;;
18596;SDS011;9428;50.950;6.912;2024-01-27T03:58:37;16.90;;;4.63;;
18596;SDS011;9428;50.950;6.912;2024-01-27T04:01:25;22.73;;;5.40;;
18596;SDS011;9428;50.950;6.912;2024-01-27T04:04:17;13.43;;;4.03;;
18596;SDS011;9428;50.950;6.912;2024-01-27T04:07:05;12.63;;;4.67;;
18596;SDS011;9428;50.950;6.912;2024-01-27T04:09:53;15.80;;;4.90;;
18596;SDS011;9428;50.950;6.912;2024-01-27T04:12:48;13.67;;;4.43;;
18596;SDS011;9428;50.950;6.912;2024-01-27T04:15:36;18.03;;;4.80;;
18596;SDS011;9428;50.950;6.912;2024-01-27T04:18:23;16.73;;;4.90;;
18596;SDS011;9428;50.950;6.912;2024-01-27T04:21:11;16.30;;;4.93;;
18596;SDS011;9428;50.950;6.912;2024-01-27T04:24:03;13.80;;;5.00;;
18596;SDS011;9428;50.950;6.912;2024-01-27T04:26:53;13.67;;;3.80;;
18596;SDS011;9428;50.950;6.912;2024-01-27T04:29:41;10.63;;;3.83;;
18596;SDS011;9428;50.950;6.912;2024-01-27T04:32:31;14.27;;;3.67;;
18596;SDS011;9428;50.950;6.912;2024-01-27T04:35:18;15.23;;;3.83;;
18596;SDS011;9428;50.950;6.912;2024-01-27T04:38:09;9.47;;;3.30;;
18596;SDS011;9428;50.950;6.912;2024-01-27T04:40:57;15.00;;;3.80;;
18596;SDS011;9428;50.950;6.912;2024-01-27T04:43:45;18.93;;;6.47;;
18596;SDS011;9428;50.950;6.912;2024-01-27T04:46:32;23.60;;;5.80;;
18596;SDS011;9428;50.950;6.912;2024-01-27T04:49:21;12.73;;;4.53;;
18596;SDS011;9428;50.950;6.912;2024-01-27T04:52:09;9.43;;;3.87;;
18596;SDS011;9428;50.950;6.912;2024-01-27T04:54:56;10.40;;;3.57;;
18596;SDS011;9428;50.950;6.912;2024-01-27T04:57:45;11.53;;;3.47;;
18596;SDS011;9428;50.950;6.912;2024-01-27T05:00:32;14.43;;;3.57;;
18596;SDS011;9428;50.950;6.912;2024-01-27T05:03:20;21.23;;;3.50;;
18596;SDS011;9428;50.950;6.912;2024-01-27T05:06:07;12.43;;;3.83;;
18596;SDS011;9428;50.950;6.912;2024-01-27T05:08:55;11.87;;;3.23;;
18596;SDS011;9428;50.950;6.912;2024-01-27T05:11:42;12.37;;;2.80;;
18596;SDS011;9428;50.950;6.912;2024-01-27T05:14:32;11.73;;;3.37;;
18596;SDS011;9428;50.950;6.912;2024-01-27T05:17:19;9.23;;;3.13;;
18596;SDS011;9428;50.950;6.912;2024-01-27T05:20:10;10.63;;;3.40;;
18596;SDS011;9428;50.950;6.912;2024-01-27T05:22:58;11.73;;;4.47;;
18596;SDS011;9428;50.950;6.912;2024-01-27T05:25:45;12.40;;;3.63;;
18596;SDS011;9428;50.950;6.912;2024-01-27T05:28:33;9.03;;;3.10;;
18596;SDS011;9428;50.950;6.912;2024-01-27T05:31:22;12.40;;;3.57;;
18596;SDS011;9428;50.950;6.912;2024-01-27T05:34:10;11.13;;;3.37;;
18596;SDS011;9428;50.950;6.912;2024-01-27T05:36:57;13.67;;;3.07;;
18596;SDS011;9428;50.950;6.912;2024-01-27T05:39:44;12.47;;;2.80;;
18596;SDS011;9428;50.950;6.912;2024-01-27T05:42:32;7.70;;;2.57;;
18596;SDS011;9428;50.950;6.912;2024-01-27T05:45:27;10.43;;;2.60;;
18596;SDS011;9428;50.950;6.912;2024-01-27T05:48:18;8.63;;;2.83;;
18596;SDS011;9428;50.950;6.912;2024-01-27T05:51:05;10.70;;;2.83;;
18596;SDS011;9428;50.950;6.912;2024-01-27T05:53:53;13.47;;;2.80;;
18596;SDS011;9428;50.950;6.912;2024-01-27T05:56:40;12.53;;;3.83;;
18596;SDS011;9428;50.950;6.912;2024-01-27T05:59:27;12.10;;;3.20;;
18596;SDS011;9428;50.950;6.912;2024-01-27T06:02:15;8.93;;;3.10;;
18596;SDS011;9428;50.950;6.912;2024-01-27T06:05:07;7.63;;;2.80;;
18596;SDS011;9428;50.950;6.912;2024-01-27T06:07:55;10.83;;;2.47;;
18596;SDS011;9428;50.950;6.912;2024-01-27T06:10:46;11.40;;;3.30;;
18596;SDS011;9428;50.950;6.912;2024-01-27T06:13:33;14.00;;;2.93;;
18596;SDS011;9428;50.950;6.912;2024-01-27T06:16:23;11.03;;;2.77;;
18596;SDS011;9428;50.950;6.912;2024-01-27T06:19:10;13.03;;;3.73;;
18596;SDS011;9428;50.950;6.912;2024-01-27T06:21:59;17.50;;;4.70;;
18596;SDS011;9428;50.950;6.912;2024-01-27T06:24:47;15.37;;;3.73;;
18596;SDS011;9428;50.950;6.912;2024-01-27T06:27:34;10.20;;;2.53;;
18596;SDS011;9428;50.950;6.912;2024-01-27T06:30:21;11.03;;;2.50;;
18596;SDS011;9428;50.950;6.912;2024-01-27T06:33:10;6.93;;;2.63;;
18596;SDS011;9428;50.950;6.912;2024-01-27T06:35:57;9.00;;;2.60;;
18596;SDS011;9428;50.950;6.912;2024-01-27T06:38:49;13.63;;;2.77;;
18596;SDS011;9428;50.950;6.912;2024-01-27T06:41:36;12.17;;;3.40;;
18596;SDS011;9428;50.950;6.912;2024-01-27T06:44:24;10.93;;;2.90;;
18596;SDS011;9428;50.950;6.912;2024-01-27T06:47:11;13.33;;;3.83;;
18596;SDS011;9428;50.950;6.912;2024-01-27T06:49:59;13.10;;;4.10;;
18596;SDS011;9428;50.950;6.912;2024-01-27T06:52:48;22.93;;;4.27;;
18596;SDS011;9428;50.950;6.912;2024-01-27T06:55:37;14.23;;;3.90;;
18596;SDS011;9428;50.950;6.912;2024-01-27T06:58:24;10.60;;;3.53;;
18596;SDS011;9428;50.950;6.912;2024-01-27T07:01:12;12.33;;;3.10;;
18596;SDS011;9428;50.950;6.912;2024-01-27T07:03:59;14.07;;;4.33;;
18596;SDS011;9428;50.950;6.912;2024-01-27T07:06:47;13.57;;;4.13;;
18596;SDS011;9428;50.950;6.912;2024-01-27T07:09:34;14.80;;;3.97;;
18596;SDS011;9428;50.950;6.912;2024-01-27T07:12:23;11.60;;;3.83;;
18596;SDS011;9428;50.950;6.912;2024-01-27T07:15:11;9.87;;;3.80;;
18596;SDS011;9428;50.950;6.912;2024-01-27T07:17:59;15.33;;;4.07;;
18596;SDS011;9428;50.950;6.912;2024-01-27T07:20:46;13.20;;;3.07;;
18596;SDS011;9428;50.950;6.912;2024-01-27T07:23:36;14.83;;;4.00;;
18596;SDS011;9428;50.950;6.912;2024-01-27T07:26:24;10.13;;;3.50;;
18596;SDS011;9428;50.950;6.912;2024-01-27T07:29:12;16.03;;;4.23;;
18596;SDS011;9428;50.950;6.912;2024-01-27T07:32:00;11.07;;;3.67;;
18596;SDS011;9428;50.950;6.912;2024-01-27T07:34:47;17.00;;;4.03;;
18596;SDS011;9428;50.950;6.912;2024-01-27T07:37:35;8.70;;;3.30;;
18596;SDS011;9428;50.950;6.912;2024-01-27T07:40:22;18.70;;;4.23;;
18596;SDS011;9428;50.950;6.912;2024-01-27T07:43:10;10.83;;;3.70;;
18596;SDS011;9428;50.950;6.912;2024-01-27T07:45:59;15.30;;;3.73;;
18596;SDS011;9428;50.950;6.912;2024-01-27T07:48:47;8.60;;;3.80;;
18596;SDS011;9428;50.950;6.912;2024-01-27T07:51:34;13.37;;;3.43;;
18596;SDS011;9428;50.950;6.912;2024-01-27T07:54:22;11.27;;;2.97;;
18596;SDS011;9428;50.950;6.912;2024-01-27T07:57:09;9.20;;;3.27;;
18596;SDS011;9428;50.950;6.912;2024-01-27T07:59:57;11.83;;;3.60;;
18596;SDS011;9428;50.950;6.912;2024-01-27T08:02:46;12.00;;;3.27;;
18596;SDS011;9428;50.950;6.912;2024-01-27T08:05:33;13.83;;;3.20;;
18596;SDS011;9428;50.950;6.912;2024-01-27T08:08:21;9.87;;;3.53;;
18596;SDS011;9428;50.950;6.912;2024-01-27T08:11:08;13.97;;;3.00;;
18596;SDS011;9428;50.950;6.912;2024-01-27T08:13:56;14.10;;;2.90;;
18596;SDS011;9428;50.950;6.912;2024-01-27T08:16:43;12.67;;;2.57;;
18596;SDS011;9428;50.950;6.912;2024-01-27T08:19:32;8.33;;;2.70;;
18596;SDS011;9428;50.950;6.912;2024-01-27T08:22:19;11.93;;;2.53;;
18596;SDS011;9428;50.950;6.912;2024-01-27T08:25:07;12.40;;;3.20;;
18596;SDS011;9428;50.950;6.912;2024-01-27T08:27:55;9.77;;;2.90;;
18596;SDS011;9428;50.950;6.912;2024-01-27T08:30:42;12.53;;;3.30;;
18596;SDS011;9428;50.950;6.912;2024-01-27T08:33:30;10.00;;;2.60;;
18596;SDS011;9428;50.950;6.912;2024-01-27T08:36:19;13.00;;;2.83;;
18596;SDS011;9428;50.950;6.912;2024-01-27T08:39:06;15.73;;;2.93;;
18596;SDS011;9428;50.950;6.912;2024-01-27T08:41:54;8.90;;;2.40;;
18596;SDS011;9428;50.950;6.912;2024-01-27T08:44:41;14.33;;;3.07;;
18596;SDS011;9428;50.950;6.912;2024-01-27T08:47:31;13.53;;;2.90;;
18596;SDS011;9428;50.950;6.912;2024-01-27T08:50:18;10.60;;;3.33;;
18596;SDS011;9428;50.950;6.912;2024-01-27T08:53:07;13.00;;;3.10;;
18596;SDS011;9428;50.950;6.912;2024-01-27T08:55:55;10.03;;;2.90;;
18596;SDS011;9428;50.950;6.912;2024-01-27T08:58:45;12.30;;;3.10;;
18596;SDS011;9428;50.950;6.912;2024-01-27T09:01:33;12.20;;;3.13;;
18596;SDS011;9428;50.950;6.912;2024-01-27T09:04:20;16.67;;;3.43;;
18596;SDS011;9428;50.950;6.912;2024-01-27T09:07:13;8.93;;;3.23;;
18596;SDS011;9428;50.950;6.912;2024-01-27T09:10:01;10.47;;;2.90;;
18596;SDS011;9428;50.950;6.912;2024-01-27T09:12:52;8.87;;;2.87;;
18596;SDS011;9428;50.950;6.912;2024-01-27T09:15:39;27.97;;;4.93;;
18596;SDS011;9428;50.950;6.912;2024-01-27T09:18:28;13.43;;;3.23;;
18596;SDS011;9428;50.950;6.912;2024-01-27T09:21:15;14.83;;;3.47;;
18596;SDS011;9428;50.950;6.912;2024-01-27T09:24:06;11.07;;;3.07;;
18596;SDS011;9428;50.950;6.912;2024-01-27T09:26:55;16.33;;;3.23;;
18596;SDS011;9428;50.950;6.912;2024-01-27T09:29:42;11.03;;;3.63;;
18596;SDS011;9428;50.950;6.912;2024-01-27T09:32:30;12.53;;;3.47;;
18596;SDS011;9428;50.950;6.912;2024-01-27T09:35:18;10.53;;;3.40;;
18596;SDS011;9428;50.950;6.912;2024-01-27T09:38:07;8.13;;;3.07;;
18596;SDS011;9428;50.950;6.912;2024-01-27T09:40:58;7.37;;;2.67;;
18596;SDS011;9428;50.950;6.912;2024-01-27T09:43:47;8.67;;;2.87;;
18596;SDS011;9428;50.950;6.912;2024-01-27T09:46:34;7.77;;;2.80;;
18596;SDS011;9428;50.950;6.912;2024-01-27T09:49:22;10.87;;;3.43;;
18596;SDS011;9428;50.950;6.912;2024-01-27T09:52:11;16.30;;;3.87;;
18596;SDS011;9428;50.950;6.912;2024-01-27T09:54:58;19.03;;;3.80;;
18596;SDS011;9428;50.950;6.912;2024-01-27T09:57:46;10.07;;;3.40;;
18596;SDS011;9428;50.950;6.912;2024-01-27T10:00:35;18.10;;;4.13;;
18596;SDS011;9428;50.950;6.912;2024-01-27T10:03:23;15.43;;;3.40;;
18596;SDS011;9428;50.950;6.912;2024-01-27T10:06:12;20.57;;;3.63;;
18596;SDS011;9428;50.950;6.912;2024-01-27T10:09:00;13.27;;;3.37;;
18596;SDS011;9428;50.950;6.912;2024-01-27T10:11:47;12.60;;;3.43;;
18596;SDS011;9428;50.950;6.912;2024-01-27T10:14:38;13.80;;;3.30;;
18596;SDS011;9428;50.950;6.912;2024-01-27T10:17:28;11.07;;;3.47;;
18596;SDS011;9428;50.950;6.912;2024-01-27T10:20:21;15.33;;;3.53;;
18596;SDS011;9428;50.950;6.912;2024-01-27T10:23:11;10.67;;;3.67;;
18596;SDS011;9428;50.950;6.912;2024-01-27T10:25:59;10.67;;;3.80;;
18596;SDS011;9428;50.950;6.912;2024-01-27T10:28:52;9.47;;;3.17;;
18596;SDS011;9428;50.950;6.912;2024-01-27T10:31:40;10.03;;;3.77;;
18596;SDS011;9428;50.950;6.912;2024-01-27T10:34:29;11.87;;;3.30;;
18596;SDS011;9428;50.950;6.912;2024-01-27T10:37:23;12.17;;;3.30;;
18596;SDS011;9428;50.950;6.912;2024-01-27T10:40:12;14.37;;;2.90;;
18596;SDS011;9428;50.950;6.912;2024-01-27T10:43:02;15.90;;;3.43;;
18596;SDS011;9428;50.950;6.912;2024-01-27T10:45:51;12.63;;;3.33;;
18596;SDS011;9428;50.950;6.912;2024-01-27T10:48:39;13.23;;;3.67;;
18596;SDS011;9428;50.950;6.912;2024-01-27T10:51:30;13.63;;;2.90;;
18596;SDS011;9428;50.950;6.912;2024-01-27T10:54:22;10.47;;;2.80;;
18596;SDS011;9428;50.950;6.912;2024-01-27T10:57:13;15.13;;;3.37;;
18596;SDS011;9428;50.950;6.912;2024-01-27T11:00:03;11.37;;;2.83;;
18596;SDS011;9428;50.950;6.912;2024-01-27T11:02:52;9.50;;;3.10;;
18596;SDS011;9428;50.950;6.912;2024-01-27T11:05:40;12.60;;;3.27;;
18596;SDS011;9428;50.950;6.912;2024-01-27T11:08:29;10.43;;;3.20;;
18596;SDS011;9428;50.950;6.912;2024-01-27T11:11:17;10.63;;;4.27;;
18596;SDS011;9428;50.950;6.912;2024-01-27T11:14:05;9.93;;;3.27;;
18596;SDS011;9428;50.950;6.912;2024-01-27T11:16:54;10.70;;;3.17;;
18596;SDS011;9428;50.950;6.912;2024-01-27T11:19:45;11.43;;;2.87;;
18596;SDS011;9428;50.950;6.912;2024-01-27T11:22:33;12.50;;;4.07;;
18596;SDS011;9428;50.950;6.912;2024-01-27T11:25:26;12.90;;;3.33;;
18596;SDS011;9428;50.950;6.912;2024-01-27T11:28:16;8.43;;;3.27;;
18596;SDS011;9428;50.950;6.912;2024-01-27T11:31:05;13.03;;;3.53;;
18596;SDS011;9428;50.950;6.912;2024-01-27T11:33:54;20.77;;;5.07;;
18596;SDS011;9428;50.950;6.912;2024-01-27T11:36:44;14.27;;;4.73;;
18596;SDS011;9428;50.950;6.912;2024-01-27T11:39:31;14.17;;;3.97;;
18596;SDS011;9428;50.950;6.912;2024-01-27T11:42:24;16.70;;;4.83;;
18596;SDS011;9428;50.950;6.912;2024-01-27T11:45:12;13.40;;;4.67;;
18596;SDS011;9428;50.950;6.912;2024-01-27T11:47:59;14.87;;;4.33;;
18596;SDS011;9428;50.950;6.912;2024-01-27T11:50:47;12.90;;;4.30;;
18596;SDS011;9428;50.950;6.912;2024-01-27T11:53:35;11.93;;;4.40;;
18596;SDS011;9428;50.950;6.912;2024-01-27T11:56:22;12.00;;;4.03;;
18596;SDS011;9428;50.950;6.912;2024-01-27T11:59:12;16.63;;;3.87;;
18596;SDS011;9428;50.950;6.912;2024-01-27T12:02:01;10.43;;;3.53;;
18596;SDS011;9428;50.950;6.912;2024-01-27T12:04:49;8.67;;;3.40;;
18596;SDS011;9428;50.950;6.912;2024-01-27T12:07:41;16.85;;;4.95;;
18596;SDS011;9428;50.950;6.912;2024-01-27T12:10:31;20.17;;;4.13;;
18596;SDS011;9428;50.950;6.912;2024-01-27T12:13:19;11.70;;;3.63;;
18596;SDS011;9428;50.950;6.912;2024-01-27T12:16:08;14.03;;;3.50;;
18596;SDS011;9428;50.950;6.912;2024-01-27T12:18:56;14.53;;;3.17;;
18596;SDS011;9428;50.950;6.912;2024-01-27T12:21:47;10.80;;;2.83;;
18596;SDS011;9428;50.950;6.912;2024-01-27T12:24:34;15.10;;;3.57;;
18596;SDS011;9428;50.950;6.912;2024-01-27T12:27:22;12.43;;;3.13;;
18596;SDS011;9428;50.950;6.912;2024-01-27T12:30:10;13.20;;;3.80;;
18596;SDS011;9428;50.950;6.912;2024-01-27T12:33:07;10.40;;;3.17;;
18596;SDS011;9428;50.950;6.912;2024-01-27T12:36:00;19.77;;;4.00;;
18596;SDS011;9428;50.950;6.912;2024-01-27T12:38:54;13.17;;;3.60;;
18596;SDS011;9428;50.950;6.912;2024-01-27T12:41:43;10.90;;;3.17;;
18596;SDS011;9428;50.950;6.912;2024-01-27T12:44:31;9.50;;;3.33;;
18596;SDS011;9428;50.950;6.912;2024-01-27T12:47:27;14.47;;;3.93;;
18596;SDS011;9428;50.950;6.912;2024-01-27T12:50:18;17.57;;;4.40;;
18596;SDS011;9428;50.950;6.912;2024-01-27T12:53:06;14.00;;;3.45;;
18596;SDS011;9428;50.950;6.912;2024-01-27T12:55:53;9.03;;;3.03;;
18596;SDS011;9428;50.950;6.912;2024-01-27T12:58:41;17.37;;;3.70;;
18596;SDS011;9428;50.950;6.912;2024-01-27T13:01:29;17.70;;;3.37;;
18596;SDS011;9428;50.950;6.912;2024-01-27T13:04:16;10.83;;;3.53;;
18596;SDS011;9428;50.950;6.912;2024-01-27T13:07:05;16.43;;;4.50;;
18596;SDS011;9428;50.950;6.912;2024-01-27T13:09:53;15.20;;;4.33;;
18596;SDS011;9428;50.950;6.912;2024-01-27T13:12:40;11.13;;;3.53;;
18596;SDS011;9428;50.950;6.912;2024-01-27T13:15:28;16.47;;;3.57;;
18596;SDS011;9428;50.950;6.912;2024-01-27T13:18:15;11.50;;;3.97;;
18596;SDS011;9428;50.950;6.912;2024-01-27T13:21:03;15.35;;;4.18;;
18596;SDS011;9428;50.950;6.912;2024-01-27T13:23:52;15.15;;;3.92;;
18596;SDS011;9428;50.950;6.912;2024-01-27T13:26:40;9.27;;;3.30;;
18596;SDS011;9428;50.950;6.912;2024-01-27T13:29:27;12.20;;;3.70;;
18596;SDS011;9428;50.950;6.912;2024-01-27T13:32:15;13.63;;;3.77;;
18596;SDS011;9428;50.950;6.912;2024-01-27T13:35:03;13.43;;;3.63;;
18596;SDS011;9428;50.950;6.912;2024-01-27T13:37:52;13.30;;;3.15;;
18596;SDS011;9428;50.950;6.912;2024-01-27T13:40:41;8.60;;;2.67;;
18596;SDS011;9428;50.950;6.912;2024-01-27T13:43:29;15.50;;;3.17;;
18596;SDS011;9428;50.950;6.912;2024-01-27T13:46:16;11.45;;;3.08;;
18596;SDS011;9428;50.950;6.912;2024-01-27T13:49:04;12.27;;;4.10;;
18596;SDS011;9428;50.950;6.912;2024-01-27T13:51:51;13.70;;;3.85;;
18596;SDS011;9428;50.950;6.912;2024-01-27T13:54:39;14.65;;;3.20;;
18596;SDS011;9428;50.950;6.912;2024-01-27T13:57:28;12.50;;;3.33;;
18596;SDS011;9428;50.950;6.912;2024-01-27T14:00:16;13.02;;;3.10;;
18596;SDS011;9428;50.950;6.912;2024-01-27T14:03:04;11.60;;;2.90;;
18596;SDS011;9428;50.950;6.912;2024-01-27T14:05:51;11.32;;;2.88;;
18596;SDS011;9428;50.950;6.912;2024-01-27T14:08:39;12.40;;;3.37;;
18596;SDS011;9428;50.950;6.912;2024-01-27T14:11:27;15.82;;;3.45;;
18596;SDS011;9428;50.950;6.912;2024-01-27T14:14:19;11.57;;;3.42;;
18596;SDS011;9428;50.950;6.912;2024-01-27T14:17:07;9.95;;;2.95;;
18596;SDS011;9428;50.950;6.912;2024-01-27T14:19:54;11.00;;;2.97;;
18596;SDS011;9428;50.950;6.912;2024-01-27T14:22:41;10.63;;;3.20;;
18596;SDS011;9428;50.950;6.912;2024-01-27T14:25:32;8.65;;;2.90;;
18596;SDS011;9428;50.950;6.912;2024-01-27T14:28:19;12.53;;;4.23;;
18596;SDS011;9428;50.950;6.912;2024-01-27T14:31:09;10.57;;;3.20;;
18596;SDS011;9428;50.950;6.912;2024-01-27T14:33:56;16.27;;;4.20;;
18596;SDS011;9428;50.950;6.912;2024-01-27T14:36:44;12.90;;;3.43;;
18596;SDS011;9428;50.950;6.912;2024-01-27T14:39:32;12.48;;;3.30;;
18596;SDS011;9428;50.950;6.912;2024-01-27T14:42:19;9.63;;;2.85;;
18596;SDS011;9428;50.950;6.912;2024-01-27T14:45:09;9.90;;;3.10;;
18596;SDS011;9428;50.950;6.912;2024-01-27T14:47:57;14.95;;;3.15;;
18596;SDS011;9428;50.950;6.912;2024-01-27T14:50:45;13.40;;;3.38;;
18596;SDS011;9428;50.950;6.912;2024-01-27T14:53:38;11.90;;;3.10;;
18596;SDS011;9428;50.950;6.912;2024-01-27T14:56:25;14.00;;;2.83;;
18596;SDS011;9428;50.950;6.912;2024-01-27T14:59:13;10.85;;;3.22;;
18596;SDS011;9428;50.950;6.912;2024-01-27T15:02:00;19.35;;;3.65;;
18596;SDS011;9428;50.950;6.912;2024-01-27T15:04:51;14.77;;;3.78;;
18596;SDS011;9428;50.950;6.912;2024-01-27T15:07:39;12.15;;;3.58;;
18596;SDS011;9428;50.950;6.912;2024-01-27T15:10:27;12.68;;;3.70;;
18596;SDS011;9428;50.950;6.912;2024-01-27T15:13:14;10.87;;;2.67;;
18596;SDS011;9428;50.950;6.912;2024-01-27T15:16:06;10.80;;;2.50;;
18596;SDS011;9428;50.950;6.912;2024-01-27T15:18:53;8.38;;;2.80;;
18596;SDS011;9428;50.950;6.912;2024-01-27T15:21:43;10.95;;;3.65;;
18596;SDS011;9428;50.950;6.912;2024-01-27T15:24:31;11.17;;;3.53;;
18596;SDS011;9428;50.950;6.912;2024-01-27T15:27:22;9.47;;;2.83;;
18596;SDS011;9428;50.950;6.912;2024-01-27T15:30:09;13.90;;;3.75;;
18596;SDS011;9428;50.950;6.912;2024-01-27T15:33:00;14.35;;;2.88;;
18596;SDS011;9428;50.950;6.912;2024-01-27T15:35:47;18.70;;;3.20;;
18596;SDS011;9428;50.950;6.912;2024-01-27T15:38:39;13.73;;;2.90;;
18596;SDS011;9428;50.950;6.912;2024-01-27T15:41:27;10.35;;;2.47;;
18596;SDS011;9428;50.950;6.912;2024-01-27T15:44:14;11.13;;;2.35;;
18596;SDS011;9428;50.950;6.912;2024-01-27T15:47:02;11.60;;;2.70;;
18596;SDS011;9428;50.950;6.912;2024-01-27T15:49:50;12.73;;;2.77;;
18596;SDS011;9428;50.950;6.912;2024-01-27T15:52:42;9.43;;;2.30;;
18596;SDS011;9428;50.950;6.912;2024-01-27T15:55:31;8.48;;;2.22;;
18596;SDS011;9428;50.950;6.912;2024-01-27T15:58:19;11.88;;;2.72;;
18596;SDS011;9428;50.950;6.912;2024-01-27T16:01:06;13.68;;;3.65;;
18596;SDS011;9428;50.950;6.912;2024-01-27T16:03:54;9.85;;;2.85;;
18596;SDS011;9428;50.950;6.912;2024-01-27T16:06:41;13.20;;;3.70;;
18596;SDS011;9428;50.950;6.912;2024-01-27T16:09:30;26.90;;;7.10;;
18596;SDS011;9428;50.950;6.912;2024-01-27T16:12:19;20.90;;;7.10;;
18596;SDS011;9428;50.950;6.912;2024-01-27T16:15:07;20.83;;;7.83;;
18596;SDS011;9428;50.950;6.912;2024-01-27T16:17:55;20.30;;;6.90;;
18596;SDS011;9428;50.950;6.912;2024-01-27T16:20:42;14.70;;;5.60;;
18596;SDS011;9428;50.950;6.912;2024-01-27T16:23:34;12.83;;;4.70;;
18596;SDS011;9428;50.950;6.912;2024-01-27T16:26:22;17.67;;;4.50;;
18596;SDS011;9428;50.950;6.912;2024-01-27T16:29:14;12.63;;;4.00;;
18596;SDS011;9428;50.950;6.912;2024-01-27T16:32:02;8.73;;;3.50;;
18596;SDS011;9428;50.950;6.912;2024-01-27T16:34:49;11.98;;;3.85;;
18596;SDS011;9428;50.950;6.912;2024-01-27T16:37:39;8.83;;;3.03;;
18596;SDS011;9428;50.950;6.912;2024-01-27T16:40:28;13.82;;;4.32;;
18596;SDS011;9428;50.950;6.912;2024-01-27T16:43:19;11.93;;;3.30;;
18596;SDS011;9428;50.950;6.912;2024-01-27T16:46:11;12.70;;;4.00;;
18596;SDS011;9428;50.950;6.912;2024-01-27T16:48:58;13.97;;;3.90;;
18596;SDS011;9428;50.950;6.912;2024-01-27T16:51:47;12.53;;;3.53;;
18596;SDS011;9428;50.950;6.912;2024-01-27T16:54:36;13.97;;;3.80;;
18596;SDS011;9428;50.950;6.912;2024-01-27T16:57:25;18.23;;;4.27;;
18596;SDS011;9428;50.950;6.912;2024-01-27T17:00:16;17.90;;;5.00;;